sensor_id;sensor_type;location;lat;lon;timestamp;pressure;altitude;pressure_sealevel;temperature;humidity
63399;BME280;49533;-34.520;150.798;2024-02-15T00:02:26;101191.25;;;21.89;61.62
63399;BME280;49533;-34.520;150.798;2024-02-15T00:04:53;101187.56;;;21.82;61.37
63399;BME280;49533;-34.520;150.798;2024-02-15T00:07:22;101227.91;;;22.06;61.59
63399;BME280;49533;-34.520;150.798;2024-02-15T00:09:50;101163.09;;;21.61;61.61
63399;BME280;49533;-34.520;150.798;2024-02-15T00:12:17;101182.78;;;21.79;61.40
63399;BME280;49533;-34.520;150.798;2024-02-15T00:14:45;101163.94;;;21.65;61.51
63399;BME280;49533;-34.520;150.798;2024-02-15T00:17:12;101176.81;;;21.77;61.50
63399;BME280;49533;-34.520;150.798;2024-02-15T00:19:39;101232.41;;;22.14;61.05
63399;BME280;49533;-34.520;150.798;2024-02-15T00:22:07;101234.06;;;22.19;61.08
63399;BME280;49533;-34.520;150.798;2024-02-15T00:24:37;101243.53;;;22.18;61.06
63399;BME280;49533;-34.520;150.798;2024-02-15T00:27:05;101193.97;;;21.86;61.00
63399;BME280;49533;-34.520;150.798;2024-02-15T00:29:32;101180.63;;;21.68;61.09
63399;BME280;49533;-34.520;150.798;2024-02-15T00:32:01;101177.47;;;21.70;61.11
63399;BME280;49533;-34.520;150.798;2024-02-15T00:34:32;101228.47;;;22.15;61.21
63399;BME280;49533;-34.520;150.798;2024-02-15T00:37:00;101241.56;;;22.18;61.21
63399;BME280;49533;-34.520;150.798;2024-02-15T00:39:27;101236.94;;;22.22;61.07
63399;BME280;49533;-34.520;150.798;2024-02-15T00:41:54;101157.00;;;21.75;61.04
63399;BME280;49533;-34.520;150.798;2024-02-15T00:44:21;101215.00;;;22.13;60.74
63399;BME280;49533;-34.520;150.798;2024-02-15T00:46:48;101238.16;;;22.25;60.73
63399;BME280;49533;-34.520;150.798;2024-02-15T00:49:16;101142.66;;;21.65;61.09
63399;BME280;49533;-34.520;150.798;2024-02-15T00:51:46;101226.78;;;22.30;60.72
63399;BME280;49533;-34.520;150.798;2024-02-15T00:54:13;101250.53;;;22.31;61.07
63399;BME280;49533;-34.520;150.798;2024-02-15T00:56:40;101205.53;;;22.14;60.99
63399;BME280;49533;-34.520;150.798;2024-02-15T00:59:07;101119.28;;;21.63;61.15
63399;BME280;49533;-34.520;150.798;2024-02-15T01:01:34;101159.16;;;21.85;61.12
63399;BME280;49533;-34.520;150.798;2024-02-15T01:04:07;101148.72;;;21.75;61.26
63399;BME280;49533;-34.520;150.798;2024-02-15T01:06:34;101215.75;;;22.33;60.81
63399;BME280;49533;-34.520;150.798;2024-02-15T01:09:02;101219.75;;;22.36;60.79
63399;BME280;49533;-34.520;150.798;2024-02-15T01:11:32;101182.00;;;22.01;60.97
63399;BME280;49533;-34.520;150.798;2024-02-15T01:13:59;101210.78;;;22.20;60.70
63399;BME280;49533;-34.520;150.798;2024-02-15T01:16:27;101198.63;;;22.24;60.63
63399;BME280;49533;-34.520;150.798;2024-02-15T01:18:55;101214.22;;;22.36;60.79
63399;BME280;49533;-34.520;150.798;2024-02-15T01:21:22;101191.84;;;22.22;60.82
63399;BME280;49533;-34.520;150.798;2024-02-15T01:23:49;101162.06;;;21.92;60.20
63399;BME280;49533;-34.520;150.798;2024-02-15T01:26:17;101157.50;;;22.03;60.56
63399;BME280;49533;-34.520;150.798;2024-02-15T01:28:44;101210.03;;;22.46;60.27
63399;BME280;49533;-34.520;150.798;2024-02-15T01:31:11;101079.28;;;21.57;60.42
63399;BME280;49533;-34.520;150.798;2024-02-15T01:33:39;101058.50;;;21.43;60.58
63399;BME280;49533;-34.520;150.798;2024-02-15T01:36:06;101215.56;;;22.46;60.29
63399;BME280;49533;-34.520;150.798;2024-02-15T01:38:34;101199.72;;;22.20;60.36
63399;BME280;49533;-34.520;150.798;2024-02-15T01:41:01;101204.38;;;22.39;60.37
63399;BME280;49533;-34.520;150.798;2024-02-15T01:43:28;101191.22;;;22.32;60.44
63399;BME280;49533;-34.520;150.798;2024-02-15T01:45:56;101179.88;;;22.18;60.28
63399;BME280;49533;-34.520;150.798;2024-02-15T01:48:25;101216.03;;;22.51;60.13
63399;BME280;49533;-34.520;150.798;2024-02-15T01:50:52;101107.34;;;21.82;60.09
63399;BME280;49533;-34.520;150.798;2024-02-15T01:53:20;101216.03;;;22.51;59.96
63399;BME280;49533;-34.520;150.798;2024-02-15T01:55:47;101110.56;;;21.84;59.85
63399;BME280;49533;-34.520;150.798;2024-02-15T01:58:15;101192.88;;;22.36;59.54
63399;BME280;49533;-34.520;150.798;2024-02-15T02:00:42;101184.16;;;22.34;60.20
63399;BME280;49533;-34.520;150.798;2024-02-15T02:03:11;101218.50;;;22.56;59.89
63399;BME280;49533;-34.520;150.798;2024-02-15T02:05:42;101154.25;;;22.21;59.73
63399;BME280;49533;-34.520;150.798;2024-02-15T02:08:09;101179.84;;;22.37;59.83
63399;BME280;49533;-34.520;150.798;2024-02-15T02:10:39;101210.63;;;22.58;59.54
63399;BME280;49533;-34.520;150.798;2024-02-15T02:13:07;101195.44;;;22.49;59.58
63399;BME280;49533;-34.520;150.798;2024-02-15T02:15:35;101213.81;;;22.61;59.59
63399;BME280;49533;-34.520;150.798;2024-02-15T02:18:04;101194.66;;;22.48;59.65
63399;BME280;49533;-34.520;150.798;2024-02-15T02:20:36;101113.66;;;22.05;59.77
63399;BME280;49533;-34.520;150.798;2024-02-15T02:23:16;101200.34;;;22.59;59.74
63399;BME280;49533;-34.520;150.798;2024-02-15T02:25:44;101074.00;;;21.71;59.80
63399;BME280;49533;-34.520;150.798;2024-02-15T02:28:15;101203.09;;;22.59;59.95
63399;BME280;49533;-34.520;150.798;2024-02-15T02:30:46;101122.84;;;22.09;59.85
63399;BME280;49533;-34.520;150.798;2024-02-15T02:33:13;101207.09;;;22.62;59.54
63399;BME280;49533;-34.520;150.798;2024-02-15T02:35:49;101178.78;;;22.45;59.51
63399;BME280;49533;-34.520;150.798;2024-02-15T02:38:16;101165.13;;;22.33;59.77
63399;BME280;49533;-34.520;150.798;2024-02-15T02:40:44;101175.69;;;22.50;59.47
63399;BME280;49533;-34.520;150.798;2024-02-15T02:43:11;101121.22;;;22.08;59.81
63399;BME280;49533;-34.520;150.798;2024-02-15T02:45:38;101105.78;;;22.07;59.60
63399;BME280;49533;-34.520;150.798;2024-02-15T02:48:06;101134.13;;;22.24;59.32
63399;BME280;49533;-34.520;150.798;2024-02-15T02:50:33;101148.16;;;22.34;59.42
63399;BME280;49533;-34.520;150.798;2024-02-15T02:53:00;101197.31;;;22.68;59.28
63399;BME280;49533;-34.520;150.798;2024-02-15T02:55:27;101200.88;;;22.68;59.53
63399;BME280;49533;-34.520;150.798;2024-02-15T02:57:54;101166.19;;;22.51;59.51
63399;BME280;49533;-34.520;150.798;2024-02-15T03:00:21;101172.13;;;22.50;59.48
63399;BME280;49533;-34.520;150.798;2024-02-15T03:02:49;101172.66;;;22.59;59.55
63399;BME280;49533;-34.520;150.798;2024-02-15T03:05:16;101175.38;;;22.55;59.29
63399;BME280;49533;-34.520;150.798;2024-02-15T03:07:43;101153.00;;;22.41;59.16
63399;BME280;49533;-34.520;150.798;2024-02-15T03:10:10;101187.88;;;22.72;59.47
63399;BME280;49533;-34.520;150.798;2024-02-15T03:12:40;101117.72;;;22.11;59.33
63399;BME280;49533;-34.520;150.798;2024-02-15T03:15:12;101093.63;;;22.12;59.39
63399;BME280;49533;-34.520;150.798;2024-02-15T03:17:40;101183.16;;;22.73;59.41
63399;BME280;49533;-34.520;150.798;2024-02-15T03:20:09;101168.75;;;22.64;59.46
63399;BME280;49533;-34.520;150.798;2024-02-15T03:23:00;101115.63;;;22.28;59.42
63399;BME280;49533;-34.520;150.798;2024-02-15T03:25:28;101191.84;;;22.75;59.46
63399;BME280;49533;-34.520;150.798;2024-02-15T03:27:57;101125.50;;;22.29;59.36
63399;BME280;49533;-34.520;150.798;2024-02-15T03:30:29;101194.22;;;22.73;59.67
63399;BME280;49533;-34.520;150.798;2024-02-15T03:32:58;101113.66;;;22.28;59.49
63399;BME280;49533;-34.520;150.798;2024-02-15T03:35:26;101187.94;;;22.76;59.06
63399;BME280;49533;-34.520;150.798;2024-02-15T03:37:55;101191.06;;;22.74;59.24
63399;BME280;49533;-34.520;150.798;2024-02-15T03:40:23;101169.19;;;22.66;59.31
63399;BME280;49533;-34.520;150.798;2024-02-15T03:42:53;101136.44;;;22.45;58.95
63399;BME280;49533;-34.520;150.798;2024-02-15T03:45:21;101159.34;;;22.68;59.17
63399;BME280;49533;-34.520;150.798;2024-02-15T03:47:54;101179.28;;;22.81;59.08
63399;BME280;49533;-34.520;150.798;2024-02-15T03:50:24;101117.75;;;22.38;59.13
63399;BME280;49533;-34.520;150.798;2024-02-15T03:52:51;101109.03;;;22.36;59.00
63399;BME280;49533;-34.520;150.798;2024-02-15T03:55:18;101172.22;;;22.84;59.18
63399;BME280;49533;-34.520;150.798;2024-02-15T03:57:48;101136.72;;;22.63;59.29
63399;BME280;49533;-34.520;150.798;2024-02-15T04:00:15;101172.25;;;22.87;59.10
63399;BME280;49533;-34.520;150.798;2024-02-15T04:02:47;101157.03;;;22.74;59.33
63399;BME280;49533;-34.520;150.798;2024-02-15T04:05:15;101133.84;;;22.55;59.33
63399;BME280;49533;-34.520;150.798;2024-02-15T04:07:44;101139.50;;;22.66;59.11
63399;BME280;49533;-34.520;150.798;2024-02-15T04:10:12;101100.81;;;22.43;59.18
63399;BME280;49533;-34.520;150.798;2024-02-15T04:12:39;101137.22;;;22.72;58.87
63399;BME280;49533;-34.520;150.798;2024-02-15T04:15:09;100983.88;;;21.70;58.05
63399;BME280;49533;-34.520;150.798;2024-02-15T04:17:41;101073.84;;;22.13;57.51
63399;BME280;49533;-34.520;150.798;2024-02-15T04:20:11;101109.91;;;22.44;57.94
63399;BME280;49533;-34.520;150.798;2024-02-15T04:22:38;101156.34;;;22.81;57.97
63399;BME280;49533;-34.520;150.798;2024-02-15T04:25:08;101163.47;;;22.82;57.92
63399;BME280;49533;-34.520;150.798;2024-02-15T04:27:45;101095.50;;;22.31;57.01
63399;BME280;49533;-34.520;150.798;2024-02-15T04:30:15;101138.63;;;22.58;56.91
63399;BME280;49533;-34.520;150.798;2024-02-15T04:32:42;101086.03;;;22.32;57.71
63399;BME280;49533;-34.520;150.798;2024-02-15T04:35:10;101147.16;;;22.76;58.21
63399;BME280;49533;-34.520;150.798;2024-02-15T04:37:38;101056.47;;;22.13;58.16
63399;BME280;49533;-34.520;150.798;2024-02-15T04:40:05;101076.56;;;22.33;58.02
63399;BME280;49533;-34.520;150.798;2024-02-15T04:42:40;101060.63;;;22.26;57.80
63399;BME280;49533;-34.520;150.798;2024-02-15T04:45:09;101121.25;;;22.62;57.61
63399;BME280;49533;-34.520;150.798;2024-02-15T04:47:39;101113.22;;;22.53;57.14
63399;BME280;49533;-34.520;150.798;2024-02-15T04:50:07;101140.84;;;22.76;56.67
63399;BME280;49533;-34.520;150.798;2024-02-15T04:52:35;101133.28;;;22.73;56.47
63399;BME280;49533;-34.520;150.798;2024-02-15T04:55:03;101136.06;;;22.73;57.25
63399;BME280;49533;-34.520;150.798;2024-02-15T04:57:34;101132.53;;;22.76;57.63
63399;BME280;49533;-34.520;150.798;2024-02-15T05:00:03;100931.41;;;21.47;57.70
63399;BME280;49533;-34.520;150.798;2024-02-15T05:02:39;101054.31;;;22.26;57.82
63399;BME280;49533;-34.520;150.798;2024-02-15T05:05:10;101132.56;;;22.79;58.33
63399;BME280;49533;-34.520;150.798;2024-02-15T05:07:39;101139.75;;;22.84;58.33
63399;BME280;49533;-34.520;150.798;2024-02-15T05:10:07;101016.47;;;22.07;58.19
63399;BME280;49533;-34.520;150.798;2024-02-15T05:12:35;101087.97;;;22.58;58.29
63399;BME280;49533;-34.520;150.798;2024-02-15T05:15:02;101098.81;;;22.70;58.43
63399;BME280;49533;-34.520;150.798;2024-02-15T05:17:38;101124.81;;;22.92;58.16
63399;BME280;49533;-34.520;150.798;2024-02-15T05:20:11;101004.00;;;21.67;58.03
63399;BME280;49533;-34.520;150.798;2024-02-15T05:22:40;101116.91;;;22.91;58.19
63399;BME280;49533;-34.520;150.798;2024-02-15T05:25:12;101100.50;;;22.78;58.03
63399;BME280;49533;-34.520;150.798;2024-02-15T05:27:42;101066.09;;;22.49;58.24
63399;BME280;49533;-34.520;150.798;2024-02-15T05:30:11;101126.50;;;22.97;57.96
63399;BME280;49533;-34.520;150.798;2024-02-15T05:32:38;101130.06;;;22.97;58.40
63399;BME280;49533;-34.520;150.798;2024-02-15T05:35:10;101132.47;;;22.99;57.99
63399;BME280;49533;-34.520;150.798;2024-02-15T05:37:38;101129.28;;;23.00;58.05
63399;BME280;49533;-34.520;150.798;2024-02-15T05:40:06;101088.91;;;22.69;57.84
63399;BME280;49533;-34.520;150.798;2024-02-15T05:42:33;101072.69;;;22.68;58.03
63399;BME280;49533;-34.520;150.798;2024-02-15T05:47:52;101117.47;;;23.04;58.17
63399;BME280;49533;-34.520;150.798;2024-02-15T05:50:21;101101.00;;;22.88;57.89
63399;BME280;49533;-34.520;150.798;2024-02-15T05:52:49;101067.97;;;22.72;58.04
63399;BME280;49533;-34.520;150.798;2024-02-15T05:55:19;101084.34;;;22.84;57.94
63399;BME280;49533;-34.520;150.798;2024-02-15T05:57:46;101026.94;;;22.47;58.00
63399;BME280;49533;-34.520;150.798;2024-02-15T06:00:14;101043.56;;;22.51;57.91
63399;BME280;49533;-34.520;150.798;2024-02-15T06:02:41;101120.69;;;23.09;58.15
63399;BME280;49533;-34.520;150.798;2024-02-15T06:05:08;100906.44;;;21.70;57.80
63399;BME280;49533;-34.520;150.798;2024-02-15T06:07:36;101046.88;;;22.60;57.97
63399;BME280;49533;-34.520;150.798;2024-02-15T06:10:04;101016.91;;;22.39;58.04
63399;BME280;49533;-34.520;150.798;2024-02-15T06:12:31;101086.03;;;22.92;57.85
63399;BME280;49533;-34.520;150.798;2024-02-15T06:14:58;101102.88;;;23.10;58.05
63399;BME280;49533;-34.520;150.798;2024-02-15T06:17:25;101069.28;;;22.82;58.09
63399;BME280;49533;-34.520;150.798;2024-02-15T06:19:52;101102.13;;;23.13;58.03
63399;BME280;49533;-34.520;150.798;2024-02-15T06:22:20;101026.28;;;22.61;58.16
63399;BME280;49533;-34.520;150.798;2024-02-15T06:24:47;101065.38;;;22.86;57.94
63399;BME280;49533;-34.520;150.798;2024-02-15T06:27:14;101045.00;;;22.71;57.91
63399;BME280;49533;-34.520;150.798;2024-02-15T06:29:42;101099.66;;;23.05;58.05
63399;BME280;49533;-34.520;150.798;2024-02-15T06:32:27;101070.50;;;22.84;57.92
63399;BME280;49533;-34.520;150.798;2024-02-15T06:35:15;101058.44;;;22.69;57.97
63399;BME280;49533;-34.520;150.798;2024-02-15T06:38:00;101047.34;;;22.69;58.09
63399;BME280;49533;-34.520;150.798;2024-02-15T06:40:45;101124.34;;;23.17;58.06
63399;BME280;49533;-34.520;150.798;2024-02-15T06:43:12;101128.28;;;23.16;58.14
63399;BME280;49533;-34.520;150.798;2024-02-15T06:45:40;101094.34;;;22.92;58.37
63399;BME280;49533;-34.520;150.798;2024-02-15T06:48:13;101112.66;;;23.00;58.03
63399;BME280;49533;-34.520;150.798;2024-02-15T06:50:40;101121.59;;;23.17;58.14
63399;BME280;49533;-34.520;150.798;2024-02-15T06:53:07;101053.31;;;22.71;57.83
63399;BME280;49533;-34.520;150.798;2024-02-15T06:55:34;101127.56;;;23.19;57.88
63399;BME280;49533;-34.520;150.798;2024-02-15T06:58:03;101075.34;;;22.91;57.98
63399;BME280;49533;-34.520;150.798;2024-02-15T07:00:32;101120.44;;;23.21;57.88
63399;BME280;49533;-34.520;150.798;2024-02-15T07:02:59;101041.34;;;22.64;57.63
63399;BME280;49533;-34.520;150.798;2024-02-15T07:05:26;101043.22;;;22.52;58.15
63399;BME280;49533;-34.520;150.798;2024-02-15T07:07:54;101014.25;;;22.46;58.08
63399;BME280;49533;-34.520;150.798;2024-02-15T07:10:22;101124.34;;;23.17;58.16
63399;BME280;49533;-34.520;150.798;2024-02-15T07:12:50;101125.56;;;23.19;58.32
63399;BME280;49533;-34.520;150.798;2024-02-15T07:15:18;101076.78;;;22.81;58.27
63399;BME280;49533;-34.520;150.798;2024-02-15T07:17:46;101097.22;;;22.99;57.87
63399;BME280;49533;-34.520;150.798;2024-02-15T07:20:14;101062.09;;;22.77;58.00
63399;BME280;49533;-34.520;150.798;2024-02-15T07:22:43;101054.88;;;22.69;57.81
63399;BME280;49533;-34.520;150.798;2024-02-15T07:25:12;100997.47;;;22.32;57.81
63399;BME280;49533;-34.520;150.798;2024-02-15T07:27:40;101013.44;;;22.46;57.89
63399;BME280;49533;-34.520;150.798;2024-02-15T07:30:08;101039.59;;;22.48;57.01
63399;BME280;49533;-34.520;150.798;2024-02-15T07:32:35;101028.41;;;22.41;56.83
63399;BME280;49533;-34.520;150.798;2024-02-15T07:35:03;101004.28;;;22.11;56.66
63399;BME280;49533;-34.520;150.798;2024-02-15T07:37:34;101077.81;;;22.69;57.15
63399;BME280;49533;-34.520;150.798;2024-02-15T07:40:02;101088.09;;;22.69;57.05
63399;BME280;49533;-34.520;150.798;2024-02-15T07:42:34;101044.78;;;22.53;57.30
63399;BME280;49533;-34.520;150.798;2024-02-15T07:45:01;101024.38;;;22.35;57.82
63399;BME280;49533;-34.520;150.798;2024-02-15T07:47:29;101061.03;;;22.55;58.02
63399;BME280;49533;-34.520;150.798;2024-02-15T07:50:05;101151.22;;;23.13;57.83
63399;BME280;49533;-34.520;150.798;2024-02-15T07:52:35;101149.63;;;23.12;57.13
63399;BME280;49533;-34.520;150.798;2024-02-15T07:55:03;101141.69;;;23.10;57.07
63399;BME280;49533;-34.520;150.798;2024-02-15T07:57:35;101158.28;;;23.07;56.98
63399;BME280;49533;-34.520;150.798;2024-02-15T08:00:02;101161.06;;;23.07;57.19
63399;BME280;49533;-34.520;150.798;2024-02-15T08:02:38;101162.19;;;23.02;57.08
63399;BME280;49533;-34.520;150.798;2024-02-15T08:05:11;101168.84;;;22.97;57.10
63399;BME280;49533;-34.520;150.798;2024-02-15T08:07:44;101171.91;;;22.92;57.01
63399;BME280;49533;-34.520;150.798;2024-02-15T08:10:13;101144.03;;;22.78;57.36
63399;BME280;49533;-34.520;150.798;2024-02-15T08:12:44;101093.38;;;22.47;57.92
63399;BME280;49533;-34.520;150.798;2024-02-15T08:15:12;101145.63;;;22.79;58.31
63399;BME280;49533;-34.520;150.798;2024-02-15T08:17:44;101151.19;;;22.83;58.14
63399;BME280;49533;-34.520;150.798;2024-02-15T08:20:15;101165.13;;;22.86;57.95
63399;BME280;49533;-34.520;150.798;2024-02-15T08:22:47;101145.19;;;22.77;58.16
63399;BME280;49533;-34.520;150.798;2024-02-15T08:25:15;101085.72;;;22.37;58.25
63399;BME280;49533;-34.520;150.798;2024-02-15T08:27:47;101193.03;;;23.00;58.07
63399;BME280;49533;-34.520;150.798;2024-02-15T08:30:16;101086.44;;;22.34;58.13
63399;BME280;49533;-34.520;150.798;2024-02-15T08:32:44;101133.94;;;22.63;58.28
63399;BME280;49533;-34.520;150.798;2024-02-15T08:35:13;101096.47;;;22.42;58.34
63399;BME280;49533;-34.520;150.798;2024-02-15T08:37:43;101109.56;;;22.45;58.24
63399;BME280;49533;-34.520;150.798;2024-02-15T08:40:13;101200.81;;;22.91;58.10
63399;BME280;49533;-34.520;150.798;2024-02-15T08:42:42;101190.88;;;22.90;58.20
63399;BME280;49533;-34.520;150.798;2024-02-15T08:45:10;101071.53;;;22.15;58.02
63399;BME280;49533;-34.520;150.798;2024-02-15T08:47:40;101185.06;;;22.69;58.04
63399;BME280;49533;-34.520;150.798;2024-02-15T08:50:09;101186.56;;;22.63;57.95
63399;BME280;49533;-34.520;150.798;2024-02-15T08:52:40;101193.84;;;22.74;58.26
63399;BME280;49533;-34.520;150.798;2024-02-15T08:55:09;101196.19;;;22.72;58.50
63399;BME280;49533;-34.520;150.798;2024-02-15T08:57:37;101201.69;;;22.69;58.52
63399;BME280;49533;-34.520;150.798;2024-02-15T09:00:07;101142.88;;;22.26;58.58
63399;BME280;49533;-34.520;150.798;2024-02-15T09:02:45;101132.13;;;22.21;58.69
63399;BME280;49533;-34.520;150.798;2024-02-15T09:05:13;101196.78;;;22.58;58.28
63399;BME280;49533;-34.520;150.798;2024-02-15T09:07:45;101229.81;;;22.71;58.68
63399;BME280;49533;-34.520;150.798;2024-02-15T09:10:17;101228.94;;;22.67;58.78
63399;BME280;49533;-34.520;150.798;2024-02-15T09:12:45;101192.06;;;22.36;58.67
63399;BME280;49533;-34.520;150.798;2024-02-15T09:15:16;101230.97;;;22.70;58.79
63399;BME280;49533;-34.520;150.798;2024-02-15T09:17:44;101223.88;;;22.72;58.94
63399;BME280;49533;-34.520;150.798;2024-02-15T09:20:13;101202.28;;;22.55;58.84
63399;BME280;49533;-34.520;150.798;2024-02-15T09:22:51;101204.28;;;22.58;58.80
63399;BME280;49533;-34.520;150.798;2024-02-15T09:25:21;101133.16;;;22.12;58.64
63399;BME280;49533;-34.520;150.798;2024-02-15T09:27:52;101227.03;;;22.71;58.54
63399;BME280;49533;-34.520;150.798;2024-02-15T09:30:22;101150.50;;;22.32;58.48
63399;BME280;49533;-34.520;150.798;2024-02-15T09:32:51;101229.28;;;22.88;58.46
63399;BME280;49533;-34.520;150.798;2024-02-15T09:35:18;101224.56;;;22.92;58.48
63399;BME280;49533;-34.520;150.798;2024-02-15T09:37:47;101236.88;;;22.95;58.56
63399;BME280;49533;-34.520;150.798;2024-02-15T09:40:17;101139.59;;;22.43;58.32
63399;BME280;49533;-34.520;150.798;2024-02-15T09:42:46;101166.00;;;22.64;58.39
63399;BME280;49533;-34.520;150.798;2024-02-15T09:45:14;101190.38;;;22.81;58.10
63399;BME280;49533;-34.520;150.798;2024-02-15T09:47:44;101215.00;;;22.86;58.09
63399;BME280;49533;-34.520;150.798;2024-02-15T09:50:13;101209.88;;;22.88;58.29
63399;BME280;49533;-34.520;150.798;2024-02-15T09:52:45;101217.38;;;22.88;58.12
63399;BME280;49533;-34.520;150.798;2024-02-15T09:55:12;101241.84;;;23.09;58.03
63399;BME280;49533;-34.520;150.798;2024-02-15T09:57:45;101179.38;;;22.58;58.11
63399;BME280;49533;-34.520;150.798;2024-02-15T10:00:13;101251.75;;;23.10;58.13
63399;BME280;49533;-34.520;150.798;2024-02-15T10:02:48;101196.81;;;22.62;58.13
63399;BME280;49533;-34.520;150.798;2024-02-15T10:05:17;101159.31;;;22.42;58.01
63399;BME280;49533;-34.520;150.798;2024-02-15T10:07:46;101193.56;;;22.56;58.29
63399;BME280;49533;-34.520;150.798;2024-02-15T10:10:25;101279.91;;;23.12;58.34
63399;BME280;49533;-34.520;150.798;2024-02-15T10:12:54;101283.13;;;23.14;58.14
63399;BME280;49533;-34.520;150.798;2024-02-15T10:15:51;101225.50;;;22.73;58.23
63399;BME280;49533;-34.520;150.798;2024-02-15T10:18:20;101246.63;;;22.85;58.24
63399;BME280;49533;-34.520;150.798;2024-02-15T10:20:58;101282.56;;;23.05;58.12
63399;BME280;49533;-34.520;150.798;2024-02-15T10:23:25;101277.28;;;22.96;58.08
63399;BME280;49533;-34.520;150.798;2024-02-15T10:25:52;101316.78;;;23.16;58.29
63399;BME280;49533;-34.520;150.798;2024-02-15T10:28:22;101316.41;;;23.17;58.08
63399;BME280;49533;-34.520;150.798;2024-02-15T10:30:54;101058.19;;;21.48;57.99
63399;BME280;49533;-34.520;150.798;2024-02-15T10:33:29;101324.38;;;23.19;58.09
63399;BME280;49533;-34.520;150.798;2024-02-15T10:36:09;101317.38;;;23.02;58.11
63399;BME280;49533;-34.520;150.798;2024-02-15T10:38:39;101331.50;;;23.20;58.05
63399;BME280;49533;-34.520;150.798;2024-02-15T10:41:07;101308.28;;;23.02;57.99
63399;BME280;49533;-34.520;150.798;2024-02-15T10:43:38;101265.50;;;22.76;58.12
63399;BME280;49533;-34.520;150.798;2024-02-15T10:46:06;101315.47;;;23.06;58.00
63399;BME280;49533;-34.520;150.798;2024-02-15T10:48:36;101283.03;;;22.84;58.00
63399;BME280;49533;-34.520;150.798;2024-02-15T10:51:09;101176.19;;;22.10;58.06
63399;BME280;49533;-34.520;150.798;2024-02-15T10:53:47;101319.41;;;23.05;58.12
63399;BME280;49533;-34.520;150.798;2024-02-15T10:56:25;101225.97;;;22.52;58.14
63399;BME280;49533;-34.520;150.798;2024-02-15T10:59:19;101253.19;;;22.73;57.99
63399;BME280;49533;-34.520;150.798;2024-02-15T11:01:46;101332.38;;;23.24;57.91
63399;BME280;49533;-34.520;150.798;2024-02-15T11:04:20;101261.50;;;22.73;58.01
63399;BME280;49533;-34.520;150.798;2024-02-15T11:06:59;101229.47;;;22.49;57.86
63399;BME280;49533;-34.520;150.798;2024-02-15T11:09:29;101295.84;;;22.95;57.83
63399;BME280;49533;-34.520;150.798;2024-02-15T11:11:57;101368.41;;;23.24;58.30
63399;BME280;49533;-34.520;150.798;2024-02-15T11:14:31;101274.16;;;22.74;57.87
63399;BME280;49533;-34.520;150.798;2024-02-15T11:17:02;101119.16;;;21.79;57.96
63399;BME280;49533;-34.520;150.798;2024-02-15T11:22:15;101330.38;;;23.25;58.19
63399;BME280;49533;-34.520;150.798;2024-02-15T11:24:51;101263.56;;;22.80;57.86
63399;BME280;49533;-34.520;150.798;2024-02-15T11:27:26;101325.00;;;23.09;57.91
63399;BME280;49533;-34.520;150.798;2024-02-15T11:29:54;101320.53;;;23.27;57.92
63399;BME280;49533;-34.520;150.798;2024-02-15T11:32:44;101318.53;;;23.28;57.80
63399;BME280;49533;-34.520;150.798;2024-02-15T11:35:17;101273.28;;;22.93;57.64
63399;BME280;49533;-34.520;150.798;2024-02-15T11:41:17;101322.09;;;23.28;57.92
63399;BME280;49533;-34.520;150.798;2024-02-15T11:43:53;101318.53;;;23.28;57.71
63399;BME280;49533;-34.520;150.798;2024-02-15T11:46:25;101299.34;;;23.15;57.79
63399;BME280;49533;-34.520;150.798;2024-02-15T11:48:57;101256.47;;;22.83;57.92
63399;BME280;49533;-34.520;150.798;2024-02-15T11:54:06;101319.28;;;23.25;57.83
63399;BME280;49533;-34.520;150.798;2024-02-15T11:56:54;101338.31;;;23.26;57.75
63399;BME280;49533;-34.520;150.798;2024-02-15T11:59:44;101262.94;;;22.90;57.83
63399;BME280;49533;-34.520;150.798;2024-02-15T12:02:33;101225.66;;;22.57;57.70
63399;BME280;49533;-34.520;150.798;2024-02-15T12:05:19;101210.50;;;22.51;57.82
63399;BME280;49533;-34.520;150.798;2024-02-15T12:08:07;101036.34;;;21.40;57.71
63399;BME280;49533;-34.520;150.798;2024-02-15T12:11:01;101297.66;;;23.07;57.97
63399;BME280;49533;-34.520;150.798;2024-02-15T12:13:52;101326.44;;;23.26;57.71
63399;BME280;49533;-34.520;150.798;2024-02-15T12:16:38;101301.94;;;23.01;57.83
63399;BME280;49533;-34.520;150.798;2024-02-15T12:19:23;101237.25;;;22.67;57.70
63399;BME280;49533;-34.520;150.798;2024-02-15T12:21:52;101245.31;;;22.75;57.71
63399;BME280;49533;-34.520;150.798;2024-02-15T12:24:20;101304.78;;;23.08;58.01
63399;BME280;49533;-34.520;150.798;2024-02-15T12:26:51;101300.06;;;23.09;58.16
63399;BME280;49533;-34.520;150.798;2024-02-15T12:29:19;101322.06;;;23.25;57.90
63399;BME280;49533;-34.520;150.798;2024-02-15T12:31:47;101273.66;;;22.92;57.79
63399;BME280;49533;-34.520;150.798;2024-02-15T12:34:16;101320.53;;;23.27;57.95
63399;BME280;49533;-34.520;150.798;2024-02-15T12:36:47;101274.97;;;22.75;57.94
63399;BME280;49533;-34.520;150.798;2024-02-15T12:39:25;101324.03;;;23.24;58.01
63399;BME280;49533;-34.520;150.798;2024-02-15T12:41:54;101330.00;;;23.26;57.83
63399;BME280;49533;-34.520;150.798;2024-02-15T12:44:21;101329.59;;;23.24;58.28
63399;BME280;49533;-34.520;150.798;2024-02-15T12:46:57;101311.56;;;23.11;58.07
63399;BME280;49533;-34.520;150.798;2024-02-15T12:52:32;101284.91;;;23.03;58.04